Washita, Oklahoma
Current Conditions -  °F | °C
As of 9:35 AM on Monday 22 Dec 2014 (Local Time) from KCHK Reporting Station
Clear Clear  
Wind Chill: 45°   Ceiling: Unl
Heat Index: 48°   Visibility: 7mi
Dew Point: 46°   Wind: 8mph
Humidity: 93%   Direction: 330°NNW
Pressure: 29.61"   Gusts: NA
Location:  35.1°N, 98.34°W
Report Text: KCHK 221535Z AUTO 33007KT 7SM CLR 09/08 A2961 RMK AO2
Loading
Personal Weather Stations






























Interactive Weather Map New forecast layout! Learn more

10-Day Weather Forecast

Advertisements
Track Severe Weather on mobile